createdAt,value
2023-03-11T00:00:44.382Z,31
2023-03-11T00:06:12.720Z,34
2023-03-11T00:07:17.856Z,34
2023-03-11T00:11:42.887Z,27
2023-03-11T00:17:13.030Z,23
2023-03-11T00:22:43.209Z,24
2023-03-11T00:28:13.421Z,18
2023-03-11T00:33:43.585Z,21
2023-03-11T00:39:13.749Z,18
2023-03-11T00:50:14.118Z,14
2023-03-11T00:55:44.279Z,12
2023-03-11T01:01:14.556Z,16
2023-03-11T01:06:45.745Z,12
2023-03-11T01:07:23.475Z,12
2023-03-11T01:12:14.781Z,13
2023-03-11T01:17:44.956Z,8
2023-03-11T01:23:15.154Z,7
2023-03-11T01:28:45.306Z,8
2023-03-11T01:45:15.858Z,7
2023-03-11T01:50:46.045Z,11
2023-03-11T01:56:16.201Z,13
2023-03-11T02:01:46.386Z,11
2023-03-11T02:07:16.510Z,9
2023-03-11T02:07:28.817Z,9
2023-03-11T02:12:46.729Z,7
2023-03-11T02:18:16.887Z,10
2023-03-11T02:23:47.076Z,11
2023-03-11T02:34:47.439Z,9
2023-03-11T02:40:17.590Z,7
2023-03-11T02:45:47.754Z,15
2023-03-11T02:51:17.928Z,8
2023-03-11T02:56:48.109Z,10
2023-03-11T03:02:18.263Z,6
2023-03-11T03:07:34.384Z,6
2023-03-11T03:07:48.452Z,8
2023-03-11T03:29:49.181Z,7
2023-03-11T03:35:19.341Z,12
2023-03-11T03:40:49.522Z,10
2023-03-11T03:46:19.754Z,7
2023-03-11T03:51:49.882Z,9
2023-03-11T03:57:20.020Z,10
2023-03-11T04:02:50.196Z,9
2023-03-11T04:05:27.846Z,9
2023-03-11T04:08:20.377Z,11
2023-03-11T04:13:50.583Z,9
2023-03-11T04:19:20.743Z,10
2023-03-11T04:41:21.454Z,8
2023-03-11T04:46:51.647Z,9
2023-03-11T04:52:21.782Z,10
2023-03-11T05:03:22.199Z,5
2023-03-11T05:05:29.516Z,5
2023-03-11T05:08:52.332Z,4
2023-03-11T05:14:22.505Z,8
2023-03-11T05:19:52.685Z,13
2023-03-11T05:25:22.876Z,6
2023-03-11T05:30:53.106Z,7
2023-03-11T05:36:23.212Z,8
2023-03-11T05:41:53.390Z,11
2023-03-11T05:47:23.552Z,8
2023-03-11T05:52:53.734Z,4
2023-03-11T05:58:23.934Z,6
2023-03-11T06:03:54.213Z,8
2023-03-11T06:05:35.097Z,8
2023-03-11T06:09:24.305Z,6
2023-03-11T06:14:54.466Z,4
2023-03-11T06:20:24.619Z,5
2023-03-11T06:31:25.014Z,6
2023-03-11T06:42:25.424Z,7
2023-03-11T06:47:55.513Z,6
2023-03-11T06:53:25.684Z,9
2023-03-11T06:58:55.866Z,5
2023-03-11T07:04:26.112Z,8
2023-03-11T07:05:40.662Z,8
2023-03-11T07:09:56.227Z,3
2023-03-11T07:15:26.402Z,6
2023-03-11T07:20:56.556Z,7
2023-03-11T07:26:26.783Z,4
2023-03-11T07:31:56.999Z,6
2023-03-11T07:37:27.071Z,3
2023-03-11T07:48:27.408Z,5
2023-03-11T07:53:58.096Z,7
2023-03-11T07:59:27.786Z,6
2023-03-11T08:04:57.949Z,8
2023-03-11T08:05:46.003Z,8
2023-03-11T08:10:29.223Z,9
2023-03-11T08:15:58.340Z,21
2023-03-11T08:21:28.821Z,7
2023-03-11T08:26:58.732Z,8
2023-03-11T08:32:28.853Z,5
2023-03-11T08:37:58.978Z,4
2023-03-11T08:43:29.187Z,7
2023-03-11T08:49:01.136Z,6
2023-03-11T08:54:29.693Z,5
2023-03-11T08:59:59.764Z,7
2023-03-11T09:05:51.642Z,7
2023-03-11T09:11:00.039Z,5
2023-03-11T09:16:30.250Z,4
2023-03-11T09:22:00.402Z,5
2023-03-11T09:27:30.564Z,7
2023-03-11T09:33:00.815Z,4
2023-03-11T09:38:30.924Z,6
2023-03-11T09:44:01.215Z,8
2023-03-11T09:55:01.429Z,14
2023-03-11T10:00:31.622Z,8
2023-03-11T10:05:57.272Z,8
2023-03-11T10:11:31.969Z,7
2023-03-11T10:22:32.310Z,8
2023-03-11T10:28:02.478Z,11
2023-03-11T10:33:32.702Z,6
2023-03-11T10:44:33.005Z,5
2023-03-11T10:50:03.168Z,6
2023-03-11T10:55:33.355Z,5
2023-03-11T11:06:02.542Z,5
2023-03-11T11:06:33.680Z,6
2023-03-11T11:12:03.843Z,10
2023-03-11T11:17:34.043Z,5
2023-03-11T11:23:04.197Z,4
2023-03-11T11:28:34.377Z,6
2023-03-11T11:39:34.725Z,5
2023-03-11T11:45:05.839Z,8
2023-03-11T11:50:35.079Z,6
2023-03-11T12:01:35.470Z,8
2023-03-11T12:06:08.050Z,8
2023-03-11T12:07:05.573Z,3
2023-03-11T12:12:35.753Z,4
2023-03-11T12:18:05.941Z,10
2023-03-11T12:23:36.124Z,8
2023-03-11T12:29:06.289Z,4
2023-03-11T12:56:37.142Z,5
2023-03-11T13:06:13.772Z,5
2023-03-11T13:13:07.645Z,4
2023-03-11T13:18:37.911Z,7
2023-03-11T13:24:08.033Z,5
2023-03-11T13:35:08.334Z,4
2023-03-11T13:40:38.513Z,6
2023-03-11T13:46:08.797Z,7
2023-03-11T13:51:39.008Z,5
2023-03-11T13:57:09.014Z,3
2023-03-11T14:06:19.828Z,3
2023-03-11T14:08:09.388Z,4
2023-03-11T14:13:39.539Z,6
2023-03-11T14:19:09.765Z,3
2023-03-11T14:24:39.977Z,5
2023-03-11T14:30:10.152Z,4
2023-03-11T14:41:10.394Z,8
2023-03-11T14:46:40.881Z,6
2023-03-11T14:52:10.751Z,4
2023-03-11T14:57:40.906Z,3
2023-03-11T15:03:11.146Z,5
2023-03-11T15:06:24.501Z,5
2023-03-11T15:08:41.262Z,4
2023-03-11T15:25:11.790Z,6
2023-03-11T15:30:42.001Z,8
2023-03-11T15:36:12.229Z,3
2023-03-11T15:41:42.359Z,6
2023-03-11T15:47:12.493Z,7
2023-03-11T15:52:42.644Z,4
2023-03-11T16:03:43.108Z,5
2023-03-11T16:06:29.762Z,5
2023-03-11T16:09:13.186Z,4
2023-03-11T16:14:43.346Z,5
2023-03-11T16:20:13.538Z,10
2023-03-11T16:25:43.710Z,6
2023-03-11T16:31:13.994Z,4
2023-03-11T16:42:14.220Z,3
2023-03-11T16:47:44.402Z,4
2023-03-11T16:58:44.721Z,5
2023-03-11T17:04:14.919Z,7
2023-03-11T17:06:35.316Z,7
2023-03-11T17:09:45.225Z,8
2023-03-11T17:15:15.274Z,4
2023-03-11T17:20:45.433Z,5
2023-03-11T17:26:15.651Z,4
2023-03-11T17:31:45.851Z,6
2023-03-11T17:37:15.959Z,5
2023-03-11T17:42:46.138Z,3
2023-03-11T17:53:46.480Z,5
2023-03-11T17:59:18.004Z,10
2023-03-11T18:04:46.821Z,4
2023-03-11T18:06:40.759Z,4
2023-03-11T18:10:17.069Z,2
2023-03-11T18:15:47.196Z,4
2023-03-11T18:21:17.354Z,5
2023-03-11T18:26:47.529Z,3
2023-03-11T18:32:17.718Z,5
2023-03-11T18:37:47.864Z,4
2023-03-11T18:43:18.061Z,3
2023-03-11T18:48:48.236Z,6
2023-03-11T18:54:18.392Z,5
2023-03-11T18:59:48.563Z,4
2023-03-11T19:05:18.809Z,5
2023-03-11T19:06:46.307Z,5
2023-03-11T19:10:48.975Z,4
2023-03-11T19:16:19.125Z,3
2023-03-11T19:21:49.317Z,7
2023-03-11T19:38:19.798Z,6
2023-03-11T19:43:49.977Z,8
2023-03-11T19:49:20.184Z,10
2023-03-11T19:54:50.335Z,7
2023-03-11T20:05:50.757Z,4
2023-03-11T20:06:51.846Z,4
2023-03-11T20:16:51.027Z,6
2023-03-11T20:22:21.281Z,5
2023-03-11T20:27:51.449Z,6
2023-03-11T20:38:51.910Z,4
2023-03-11T20:44:22.001Z,6
2023-03-11T20:49:52.202Z,5
2023-03-11T20:55:22.330Z,6
2023-03-11T21:00:52.520Z,5
2023-03-11T21:06:22.642Z,8
2023-03-11T21:06:57.286Z,8
2023-03-11T21:11:52.890Z,6
2023-03-11T21:17:23.045Z,4
2023-03-11T21:22:53.142Z,10
2023-03-11T21:28:23.324Z,8
2023-03-11T21:33:53.503Z,6
2023-03-11T21:39:23.743Z,4
2023-03-11T21:44:53.997Z,7
2023-03-11T21:50:23.995Z,5
2023-03-11T22:01:24.445Z,4
2023-03-11T22:06:56.676Z,8
2023-03-11T22:07:02.782Z,8
2023-03-11T22:12:24.684Z,6
2023-03-11T22:17:54.900Z,5
2023-03-11T22:39:55.607Z,6
2023-03-11T22:45:25.749Z,5
2023-03-11T22:50:55.942Z,4
2023-03-11T23:07:08.277Z,4
2023-03-11T23:07:26.457Z,5
2023-03-11T23:12:56.692Z,4
2023-03-11T23:18:26.860Z,5
2023-03-11T23:29:27.163Z,6
2023-03-11T23:40:27.524Z,4
2023-03-11T23:45:57.725Z,7
2023-03-11T23:51:27.883Z,4
2023-03-11T23:56:58.051Z,5
